• Join FlightAware (Why Join?)
  • Login
  • US Flag 
01:09PM EDT


 

Airport Tracker/Info


-or-


 

Live Flight TrackerFlight Track Log ✈ EJA930 ✈ 27-Jun-2013 ✈ KBFI - KSAN

Flight Track Log - Related Links

Times and Time Zones

All times are in EDT time to prevent confusion due to time zone crossing. See the EJA930 flight status page for this flight to view local times or setup timezone preferences in your user account.

Time Position Orientation Groundspeed Altitude Reporting Facility
EDT Latitude Longitude Course Direction KTS MPH feet Rate Location/Type
08:16PM 47.5064 -122.2842 147° Southeast 178 205 1,300  Level Seattle Center
08:17PM 47.4828 -122.2611 147° Southeast 197 227 2,300 1,140 Climbing Seattle Center
08:18PM 47.4356 -122.2153 147° Southeast 207 238 3,100 900 Climbing Seattle Center
08:19PM 47.3839 -122.1839 158° South 221 254 4,100 1,560 Climbing Seattle Center
08:20PM 47.3203 -122.1703 172° South 232 267 6,200 2,640 Climbing Seattle Center
08:21PM 47.2447 -122.1500 170° South 254 292 9,600 2,700 Climbing Seattle Center
08:22PM 47.1692 -122.1306 170° South 278 320 11,800 2,160 Climbing Seattle Center
08:23PM 47.0853 -122.1083 170° South 307 353 14,100 2,040 Climbing Seattle Center
08:24PM 46.9997 -122.0719 164° South 324 373 16,000 1,740 Climbing Seattle Center
08:25PM 46.9144 -121.9878 146° Southeast 346 398 17,700 1,320 Climbing Seattle Center
08:26PM 46.8422 -121.9125 145° Southeast 352 405 18,700 1,080 Climbing Seattle Center
08:27PM 46.7628 -121.8244 143° Southeast 360 414 19,900 1,320 Climbing Seattle Center
08:28PM 46.6792 -121.7317 143° Southeast 380 437 21,400 1,560 Climbing Seattle Center
08:29PM 46.5747 -121.6136 142° Southeast 399 459 23,200 1,560 Climbing Seattle Center
08:30PM 46.4833 -121.5422 152° Southeast 396 456 24,700 1,320 Climbing Seattle Center
08:31PM 46.3797 -121.5239 173° South 378 435 26,000 1,200 Climbing Seattle Center
08:32PM 46.2717 -121.5075 174° South 385 443 27,200 1,200 Climbing Seattle Center
08:33PM 46.1622 -121.4889 173° South 395 455 28,500 1,200 Climbing Seattle Center
08:34PM 46.0483 -121.4717 174° South 409 471 29,700 1,200 Climbing Seattle Center
08:35PM 45.9325 -121.4542 174° South 418 481 31,000 1,260 Climbing Seattle Center
08:36PM 45.8142 -121.4372 174° South 426 490 32,300 1,500 Climbing Seattle Center
08:37PM 45.6728 -121.4153 174° South 428 493 34,100 1,860 Climbing Seattle Center
08:38PM 45.5550 -121.3969 174° South 427 491 36,200 1,800 Climbing Seattle Center
08:39PM 45.4389 -121.3789 174° South 422 486 37,900 1,440 Climbing Seattle Center
08:40PM 45.3217 -121.3594 173° South 425 489 39,200 1,500 Climbing Seattle Center
08:41PM 45.2042 -121.3425 174° South 427 491 41,000 540 Climbing Seattle Center
08:43PM 45.0556 -121.3337 178° South  Level FlightAware Approximate
08:43PM 44.9600 -121.3044 178° South 449 517 41,000  Level Seattle Center
08:44PM 44.8303 -121.2850 174° South 463 533 41,000  Level Seattle Center
08:45PM 44.6989 -121.2653 174° South 471 542 41,000  Level Seattle Center
08:46PM 44.5431 -121.2422 174° South 470 541 41,000  Level Seattle Center
08:47PM 44.4111 -121.2231 174° South 477 549 41,000  Level Seattle Center
08:48PM 44.2783 -121.2014 173° South 482 555 41,000  Level Seattle Center
08:49PM 44.1467 -121.1825 174° South 481 554 41,000  Level Seattle Center
08:50PM 44.0133 -121.1636 174° South 487 560 41,000  Level Seattle Center
08:51PM 43.8808 -121.1433 174° South 481 554 41,000  Level Seattle Center
08:52PM 43.7464 -121.1225 174° South 486 559 41,000  Level Seattle Center
08:54PM 43.6133 -121.1042 174° South 483 556 41,000  Level Seattle Center
08:55PM 43.4661 -121.0844 174° South 485 558 41,000  Level Seattle Center
08:56PM 43.3319 -121.0636 174° South 486 559 41,000  Level Seattle Center
08:57PM 43.1969 -121.0458 175° South 487 560 41,000  Level Seattle Center
08:58PM 43.0617 -121.0261 174° South 489 563 41,000  Level Seattle Center
08:59PM 42.9256 -121.0064 174° South 492 566 41,000  Level Seattle Center
09:00PM 42.7906 -120.9883 174° South 489 563 41,000  Level Seattle Center
09:01PM 42.6569 -120.9711 175° South 485 558 41,000  Level Seattle Center
09:02PM 42.5214 -120.9500 173° South 488 562 41,000  Level Seattle Center
09:03PM 42.3597 -120.9289 174° South 487 560 41,000  Level Seattle Center
09:04PM 42.2244 -120.9086 174° South 487 560 41,000  Level Seattle Center
09:05PM 42.0906 -120.8906 174° South 482 555 41,000  Level Seattle Center
09:06PM 41.9564 -120.8731 174° South 483 556 41,000  Level Seattle Center
09:07PM 41.8189 -120.8528 174° South 491 565 41,000  Level Seattle Center
09:08PM 41.6844 -120.8356 175° South 483 556 41,000  Level Seattle Center
09:09PM 41.5489 -120.8167 174° South 485 558 41,000  Level Seattle Center
09:10PM 41.4119 -120.7981 174° South 492 566 41,000  Level Seattle Center
09:11PM 41.2756 -120.7792 174° South 493 567 41,000  Level Seattle Center
09:12PM 41.1386 -120.7606 174° South 494 568 41,000  Level Seattle Center
09:13PM 41.0008 -120.7414 174° South 496 571 41,000  Level Seattle Center
09:14PM 40.8644 -120.7092 170° South 497 572 41,000  Level Seattle Center
09:15PM 40.7258 -120.6778 170° South 504 580 41,000  Level Seattle Center
09:16PM 40.6181 -120.6514 169° South 496 571 41,000  Level Oakland Center
09:17PM 40.4842 -120.6181 169° South 497 572 41,000  Level Oakland Center
09:18PM 40.3472 -120.5864 170° South 496 571 41,000  Level Oakland Center
09:19PM 40.2086 -120.5531 170° South 500 575 41,000  Level Oakland Center
09:20PM 40.0431 -120.5142 170° South 502 578 41,000  Level Oakland Center
09:21PM 39.9044 -120.4811 170° South 503 579 41,000  Level Oakland Center
09:22PM 39.7647 -120.4500 170° South 505 581 41,000  Level Oakland Center
09:23PM 39.6247 -120.4161 169° South 509 586 41,000  Level Oakland Center
09:24PM 39.4850 -120.3842 170° South 509 586 41,000  Level Oakland Center
09:25PM 39.3447 -120.3517 170° South 508 585 41,000  Level Oakland Center
09:26PM 39.2050 -120.3186 170° South 509 586 41,000  Level Oakland Center
09:27PM 39.0656 -120.2867 170° South 507 583 41,000  Level Oakland Center
09:28PM 38.9239 -120.2542 170° South 513 590 41,000  Level Oakland Center
09:29PM 38.7833 -120.2222 170° South 510 587 41,000  Level Oakland Center
09:30PM 38.6414 -120.1900 170° South 513 590 41,000  Level Oakland Center
09:31PM 38.5000 -120.1575 170° South 513 590 41,000  Level Oakland Center
09:32PM 38.3269 -120.1203 170° South 522 601 41,000  Level Oakland Center
09:33PM 38.1839 -120.0881 170° South 520 598 41,000  Level Oakland Center
09:34PM 38.0436 -120.0558 170° South 511 588 41,000  Level Oakland Center
09:35PM 37.9006 -120.0253 170° South 518 596 41,000  Level Oakland Center
09:36PM 37.7558 -119.9933 170° South 523 602 41,000  Level Oakland Center
09:37PM 37.6125 -119.9617 170° South 523 602 41,000  Level Oakland Center
09:38PM 37.4692 -119.9308 170° South 523 602 41,000  Level Oakland Center
09:39PM 37.3250 -119.8994 170° South 525 604 41,000  Level Oakland Center
09:40PM 37.1806 -119.8681 170° South 527 606 41,000  Level Oakland Center
09:41PM 37.0419 -119.8369 170° South 524 603 41,000  Level Oakland Center
09:42PM 36.8689 -119.7936 169° South 531 611 41,000  Level Oakland Center
09:43PM 36.7322 -119.7306 160° South 527 606 41,000  Level Oakland Center
09:44PM 36.5931 -119.6636 159° South 531 611 41,000  Level Oakland Center
09:45PM 36.4561 -119.5969 159° South 529 609 41,000  Level Oakland Center
09:46PM 36.3169 -119.5322 159° South 531 611 41,000  Level Oakland Center
09:47PM 36.1789 -119.4644 158° South 532 612 41,000  Level Oakland Center
09:48PM 36.0397 -119.3997 159° South 532 612 41,000  Level Oakland Center
09:49PM 35.9011 -119.3353 159° South 530 610 41,000  Level Oakland Center
09:50PM 35.7908 -119.2819 159° South 532 612 41,000  Level Los Angeles Center
09:51PM 35.6489 -119.2167 160° South 535 616 41,000  Level Los Angeles Center
09:52PM 35.5372 -119.1636 159° South 538 619 41,000  Level Los Angeles Center
09:53PM 35.3689 -119.0858 159° South 536 617 41,000  Level Los Angeles Center
09:54PM 35.2297 -119.0217 159° South 534 615 41,000 -240 Level Los Angeles Center
09:55PM 35.0881 -118.9578 160° South 538 619 40,600 -840 Descending Los Angeles Center
09:56PM 34.9194 -118.8814 160° South 538 619 39,300 -1,200 Descending Los Angeles Center
09:57PM 34.7839 -118.8197 160° South 527 606 38,200 -1,080 Descending Los Angeles Center
09:58PM 34.6492 -118.7578 159° South 520 598 37,200 -600 Descending Los Angeles Center
09:59PM 34.5139 -118.6961 159° South 519 597 37,000 -120 Descending Los Angeles Center
10:00PM 34.4047 -118.6469 160° South 522 601 37,000  Level Los Angeles Center
10:01PM 34.2419 -118.5717 159° South 521 600 37,000  Level Los Angeles Center
10:02PM 34.1061 -118.5106 160° South 522 601 37,000  Level Los Angeles Center
10:03PM 33.9447 -118.4311 158° South 521 600 37,000 -1,080 Level Los Angeles Center
10:04PM 33.8456 -118.3219 138° Southeast 527 606 34,900 -2,400 Descending Los Angeles Center
10:05PM 33.7561 -118.2017 132° Southeast 533 613 32,200 -3,120 Descending Los Angeles Center
10:07PM 33.6369 -118.0533 134° Southeast 514 592 28,500 -3,300 Descending Los Angeles Center
10:08PM 33.5408 -117.9322 134° Southeast 503 579 25,500 -2,280 Descending Los Angeles Center
10:09PM 33.4569 -117.8267 134° Southeast 446 513 23,400 -2,160 Descending Los Angeles Center
10:09PM 33.4000 -117.7500 132° Southeast 390 449 21,800 -2,340 Descending Southern California TRACON
10:10PM 33.3664 -117.7136 138° Southeast 395 455 21,000 -1,860 Descending Los Angeles Center
10:11PM 33.2947 -117.6231 133° Southeast 380 437 19,000 -2,100 Descending Los Angeles Center
10:12PM 33.2239 -117.5403 136° Southeast 363 418 16,700 -2,100 Descending Los Angeles Center
10:13PM 33.1422 -117.4756 146° Southeast 352 405 14,800 -1,800 Descending Los Angeles Center
10:14PM 33.0469 -117.3975 146° Southeast 348 400 13,100 -2,040 Descending Los Angeles Center
10:15PM 32.9678 -117.3353 147° Southeast 344 396 10,700 -1,800 Descending Los Angeles Center
10:16PM 32.8964 -117.2769 146° Southeast 322 371 9,400 -1,380 Descending Los Angeles Center
10:17PM 32.8392 -117.2131 137° Southeast 292 336 7,900 -1,200 Descending Los Angeles Center
10:18PM 32.7875 -117.1456 132° Southeast 277 319 7,000 -780 Descending Los Angeles Center
10:19PM 32.7542 -117.0714 118° Southeast 263 303 6,400 -840 Descending Los Angeles Center
10:20PM 32.7322 -116.9953 109° East 249 287 5,300 -1,200 Descending Los Angeles Center
10:21PM 32.6833 -117.0000 185° South 246 283 3,600 -1,320 Descending Southern California TRACON
10:23PM 32.7000 -117.0667 287° West 177 204 2,200 -1,140 Descending Southern California TRACON
10:23PM 32.7167 -117.1000 301° West 143 165 1,400 -780 Descending Southern California TRACON
10:24PM 32.7203 -117.1381 276° West 144 166 900 -660 Descending Los Angeles Center
10:25PM 32.7306 -117.1781 287° West 132 152 200 -720 Descending Los Angeles Center
10:27PM 32.7333 -117.1833 275° West  Level FlightAware Approximate
10:34PM 32.7336 -117.1897 275° West  Level Estimated